ROI1377 SKBO-SKPS
Flight info
| Callsign | ROI1377 |
|---|---|
| Flight time | 0h 47m |
| Altitude | 38000 |
| Route | VAPOM4R OREGA DCT MER |
| Aircraft | B736/M-SDE2E3FGHIRWXY/LB1 |
Departure
| Time | 2026-04-25 13:25 |
|---|---|
| Airport | El Dorado International Airport (SKBO) |
Arrival
| Time | 2026-04-25 14:12 |
|---|---|
| Airport | Antonio Nariño Airport (SKPS) |
| Time | Latitude | Longitude | Altitude | Speed | Heading |
|---|---|---|---|---|---|
| 2026-04-25 12:20 | 4.69861 | -74.14430 | 8373 ft | 0 kts | 228° |
| 2026-04-25 12:59 | 4.69865 | -74.14425 | 8372 ft | 4 kts | 226° |
| 2026-04-25 12:59 | 4.69881 | -74.14408 | 8372 ft | 4 kts | 233° |
| 2026-04-25 12:59 | 4.69891 | -74.14386 | 8372 ft | 4 kts | 275° |
| 2026-04-25 12:59 | 4.69882 | -74.14362 | 8373 ft | 4 kts | 306° |
| 2026-04-25 13:00 | 4.69882 | -74.14363 | 8373 ft | 4 kts | 307° |
| 2026-04-25 13:00 | 4.69893 | -74.14378 | 8372 ft | 4 kts | 307° |
| 2026-04-25 13:00 | 4.69903 | -74.14390 | 8372 ft | 0 kts | 307° |
| 2026-04-25 13:03 | 4.69910 | -74.14399 | 8372 ft | 4 kts | 305° |
| 2026-04-25 13:03 | 4.69931 | -74.14434 | 8372 ft | 7 kts | 302° |
| 2026-04-25 13:03 | 4.69959 | -74.14473 | 8372 ft | 7 kts | 308° |
| 2026-04-25 13:03 | 4.69990 | -74.14509 | 8372 ft | 7 kts | 311° |
| 2026-04-25 13:04 | 4.70020 | -74.14544 | 8373 ft | 7 kts | 308° |
| 2026-04-25 13:04 | 4.70049 | -74.14578 | 8372 ft | 6 kts | 317° |
| 2026-04-25 13:04 | 4.70088 | -74.14605 | 8373 ft | 8 kts | 322° |
| 2026-04-25 13:04 | 4.70132 | -74.14644 | 8372 ft | 9 kts | 320° |
| 2026-04-25 13:05 | 4.70162 | -74.14678 | 8373 ft | 10 kts | 292° |
| 2026-04-25 13:05 | 4.70111 | -74.14753 | 8373 ft | 11 kts | 217° |
| 2026-04-25 13:05 | 4.70050 | -74.14798 | 8372 ft | 11 kts | 217° |
| 2026-04-25 13:05 | 4.69993 | -74.14842 | 8372 ft | 10 kts | 217° |
| 2026-04-25 13:06 | 4.69935 | -74.14885 | 8372 ft | 10 kts | 217° |
| 2026-04-25 13:06 | 4.69880 | -74.14927 | 8372 ft | 10 kts | 219° |
| 2026-04-25 13:06 | 4.69863 | -74.14985 | 8372 ft | 10 kts | 301° |
| 2026-04-25 13:06 | 4.69905 | -74.15039 | 8373 ft | 10 kts | 308° |
| 2026-04-25 13:07 | 4.69951 | -74.15098 | 8372 ft | 11 kts | 308° |
| 2026-04-25 13:07 | 4.70000 | -74.15166 | 8373 ft | 13 kts | 305° |
| 2026-04-25 13:07 | 4.70055 | -74.15239 | 8373 ft | 14 kts | 308° |
| 2026-04-25 13:07 | 4.70114 | -74.15317 | 8373 ft | 15 kts | 307° |
| 2026-04-25 13:08 | 4.70177 | -74.15401 | 8372 ft | 15 kts | 306° |
| 2026-04-25 13:08 | 4.70242 | -74.15487 | 8372 ft | 16 kts | 308° |
| 2026-04-25 13:08 | 4.70310 | -74.15576 | 8372 ft | 16 kts | 307° |
| 2026-04-25 13:08 | 4.70381 | -74.15670 | 8372 ft | 17 kts | 307° |
| 2026-04-25 13:09 | 4.70456 | -74.15769 | 8372 ft | 18 kts | 307° |
| 2026-04-25 13:09 | 4.70534 | -74.15871 | 8372 ft | 18 kts | 307° |
| 2026-04-25 13:09 | 4.70611 | -74.15972 | 8372 ft | 18 kts | 307° |
| 2026-04-25 13:09 | 4.70686 | -74.16072 | 8373 ft | 20 kts | 307° |
| 2026-04-25 13:10 | 4.70780 | -74.16196 | 8373 ft | 24 kts | 307° |
| 2026-04-25 13:10 | 4.70880 | -74.16326 | 8373 ft | 23 kts | 308° |
| 2026-04-25 13:10 | 4.70974 | -74.16449 | 8372 ft | 22 kts | 307° |
| 2026-04-25 13:10 | 4.71053 | -74.16555 | 8372 ft | 14 kts | 306° |
| 2026-04-25 13:11 | 4.71108 | -74.16629 | 8373 ft | 10 kts | 307° |
| 2026-04-25 13:11 | 4.71123 | -74.16649 | 8372 ft | 0 kts | 307° |
| 2026-04-25 13:13 | 4.71126 | -74.16653 | 8372 ft | 3 kts | 307° |
| 2026-04-25 13:13 | 4.71140 | -74.16671 | 8373 ft | 3 kts | 307° |
| 2026-04-25 13:13 | 4.71152 | -74.16687 | 8372 ft | 0 kts | 307° |
| 2026-04-25 13:14 | 4.71154 | -74.16690 | 8372 ft | 2 kts | 307° |
| 2026-04-25 13:14 | 4.71158 | -74.16696 | 8373 ft | 0 kts | 307° |
| 2026-04-25 13:14 | 4.71160 | -74.16698 | 8372 ft | 0 kts | 307° |
| 2026-04-25 13:15 | 4.71160 | -74.16699 | 8373 ft | 1 kts | 307° |
| 2026-04-25 13:15 | 4.71183 | -74.16728 | 8373 ft | 9 kts | 307° |
| 2026-04-25 13:15 | 4.71223 | -74.16781 | 8373 ft | 10 kts | 307° |
| 2026-04-25 13:16 | 4.71252 | -74.16839 | 8373 ft | 9 kts | 269° |
| 2026-04-25 13:16 | 4.71230 | -74.16870 | 8372 ft | 0 kts | 217° |
| 2026-04-25 13:20 | 4.71230 | -74.16871 | 8372 ft | 0 kts | 217° |
| 2026-04-25 13:20 | 4.71205 | -74.16888 | 8372 ft | 8 kts | 211° |
| 2026-04-25 13:21 | 4.71132 | -74.16894 | 8372 ft | 13 kts | 173° |
| 2026-04-25 13:21 | 4.71047 | -74.16888 | 8372 ft | 8 kts | 180° |
| 2026-04-25 13:21 | 4.71024 | -74.16875 | 8372 ft | 0 kts | 127° |
| 2026-04-25 13:24 | 4.70985 | -74.16823 | 8372 ft | 34 kts | 127° |
| 2026-04-25 13:24 | 4.70710 | -74.16460 | 8374 ft | 95 kts | 127° |
| 2026-04-25 13:24 | 4.70199 | -74.15785 | 8371 ft | 146 kts | 127° |
| 2026-04-25 13:24 | 4.69516 | -74.14879 | 8552 ft | 169 kts | 126° |
| 2026-04-25 13:25 | 4.68788 | -74.13925 | 9068 ft | 174 kts | 128° |
| 2026-04-25 13:25 | 4.67787 | -74.13254 | 9551 ft | 181 kts | 173° |
| 2026-04-25 13:25 | 4.66610 | -74.13539 | 10066 ft | 181 kts | 223° |
| 2026-04-25 13:25 | 4.65841 | -74.14587 | 10483 ft | 201 kts | 237° |
| 2026-04-25 13:26 | 4.65018 | -74.15839 | 10730 ft | 229 kts | 236° |
| 2026-04-25 13:26 | 4.64093 | -74.17190 | 11295 ft | 240 kts | 236° |
| 2026-04-25 13:26 | 4.63114 | -74.18583 | 12067 ft | 247 kts | 236° |
| 2026-04-25 13:26 | 4.62109 | -74.19995 | 12935 ft | 250 kts | 236° |
| 2026-04-25 13:27 | 4.61367 | -74.21569 | 13709 ft | 256 kts | 258° |
| 2026-04-25 13:27 | 4.61032 | -74.23382 | 14200 ft | 277 kts | 260° |
| 2026-04-25 13:27 | 4.60663 | -74.25384 | 14463 ft | 304 kts | 260° |
| 2026-04-25 13:27 | 4.60215 | -74.27501 | 15117 ft | 316 kts | 252° |
| 2026-04-25 13:28 | 4.59651 | -74.28855 | 15685 ft | 319 kts | 244° |
| 2026-04-25 13:28 | 4.58971 | -74.30204 | 16303 ft | 322 kts | 243° |
| 2026-04-25 13:28 | 4.57574 | -74.32847 | 17444 ft | 327 kts | 242° |
| 2026-04-25 13:28 | 4.56497 | -74.34877 | 18232 ft | 333 kts | 242° |
| 2026-04-25 13:29 | 4.55380 | -74.36999 | 18486 ft | 357 kts | 242° |
| 2026-04-25 13:29 | 4.54192 | -74.39283 | 18651 ft | 380 kts | 243° |
| 2026-04-25 13:29 | 4.52943 | -74.41701 | 18805 ft | 400 kts | 243° |
| 2026-04-25 13:30 | 4.50342 | -74.46767 | 19831 ft | 412 kts | 243° |
| 2026-04-25 13:30 | 4.49028 | -74.49334 | 20161 ft | 414 kts | 243° |
| 2026-04-25 13:30 | 4.47714 | -74.51902 | 20156 ft | 415 kts | 243° |
| 2026-04-25 13:31 | 4.45051 | -74.57103 | 21102 ft | 422 kts | 243° |
| 2026-04-25 13:31 | 4.43704 | -74.59734 | 21389 ft | 430 kts | 243° |
| 2026-04-25 13:31 | 4.42336 | -74.62405 | 21304 ft | 429 kts | 243° |
| 2026-04-25 13:31 | 4.40979 | -74.65055 | 21296 ft | 429 kts | 243° |
| 2026-04-25 13:32 | 4.39608 | -74.67733 | 21714 ft | 433 kts | 243° |
| 2026-04-25 13:32 | 4.38232 | -74.70412 | 22356 ft | 432 kts | 243° |
| 2026-04-25 13:32 | 4.36852 | -74.73090 | 22855 ft | 434 kts | 242° |
| 2026-04-25 13:32 | 4.35457 | -74.75795 | 23244 ft | 439 kts | 242° |
| 2026-04-25 13:33 | 4.34067 | -74.78492 | 23653 ft | 442 kts | 242° |
| 2026-04-25 13:33 | 4.32650 | -74.81240 | 23991 ft | 447 kts | 242° |
| 2026-04-25 13:33 | 4.31217 | -74.84020 | 23987 ft | 448 kts | 243° |
| 2026-04-25 13:33 | 4.30255 | -74.85889 | 23996 ft | 446 kts | 243° |
| 2026-04-25 13:34 | 4.28370 | -74.89545 | 24011 ft | 446 kts | 243° |
| 2026-04-25 13:34 | 4.26947 | -74.92307 | 24019 ft | 446 kts | 243° |
| 2026-04-25 13:34 | 4.25523 | -74.95071 | 24021 ft | 446 kts | 243° |
| 2026-04-25 13:34 | 4.24099 | -74.97835 | 24028 ft | 447 kts | 243° |
| 2026-04-25 13:35 | 4.22675 | -75.00601 | 24030 ft | 447 kts | 243° |
| 2026-04-25 13:35 | 4.21248 | -75.03370 | 24038 ft | 447 kts | 243° |
| 2026-04-25 13:35 | 4.19716 | -75.06081 | 24046 ft | 447 kts | 237° |
| 2026-04-25 13:35 | 4.17922 | -75.08625 | 24062 ft | 447 kts | 233° |
| 2026-04-25 13:36 | 4.16020 | -75.11089 | 24067 ft | 447 kts | 232° |
| 2026-04-25 13:36 | 4.14090 | -75.13535 | 24063 ft | 447 kts | 232° |
| 2026-04-25 13:36 | 4.12167 | -75.15993 | 24067 ft | 447 kts | 232° |
| 2026-04-25 13:36 | 4.10268 | -75.18462 | 24080 ft | 447 kts | 233° |
| 2026-04-25 13:37 | 4.08393 | -75.20938 | 24106 ft | 446 kts | 233° |
| 2026-04-25 13:37 | 4.06526 | -75.23425 | 24106 ft | 447 kts | 233° |
| 2026-04-25 13:37 | 4.04661 | -75.25922 | 24110 ft | 447 kts | 233° |
| 2026-04-25 13:37 | 4.02798 | -75.28420 | 24112 ft | 447 kts | 233° |
| 2026-04-25 13:38 | 4.00936 | -75.30916 | 24114 ft | 448 kts | 233° |
| 2026-04-25 13:38 | 3.99069 | -75.33417 | 24113 ft | 448 kts | 233° |
| 2026-04-25 13:38 | 3.97201 | -75.35917 | 24106 ft | 449 kts | 233° |
| 2026-04-25 13:38 | 3.95332 | -75.38419 | 24112 ft | 449 kts | 233° |
| 2026-04-25 13:39 | 3.93458 | -75.40926 | 24112 ft | 449 kts | 233° |
| 2026-04-25 13:39 | 3.91586 | -75.43430 | 24120 ft | 449 kts | 233° |
| 2026-04-25 13:39 | 3.89714 | -75.45934 | 24115 ft | 449 kts | 233° |
| 2026-04-25 13:39 | 3.87864 | -75.48408 | 24111 ft | 449 kts | 233° |
| 2026-04-25 13:40 | 3.85821 | -75.50768 | 24108 ft | 449 kts | 222° |
| 2026-04-25 13:40 | 3.83431 | -75.52775 | 24125 ft | 448 kts | 218° |
| 2026-04-25 13:40 | 3.80974 | -75.54690 | 24121 ft | 449 kts | 217° |
| 2026-04-25 13:40 | 3.78484 | -75.56590 | 24119 ft | 449 kts | 217° |
| 2026-04-25 13:41 | 3.76007 | -75.58485 | 24120 ft | 449 kts | 217° |
| 2026-04-25 13:41 | 3.73535 | -75.60398 | 24117 ft | 449 kts | 218° |
| 2026-04-25 13:41 | 3.71074 | -75.62326 | 24120 ft | 449 kts | 218° |
| 2026-04-25 13:41 | 3.68622 | -75.64263 | 24117 ft | 449 kts | 218° |
| 2026-04-25 13:42 | 3.66173 | -75.66208 | 24142 ft | 452 kts | 218° |
| 2026-04-25 13:42 | 3.63694 | -75.68182 | 24523 ft | 454 kts | 218° |
| 2026-04-25 13:42 | 3.61229 | -75.70147 | 25061 ft | 453 kts | 218° |
| 2026-04-25 13:42 | 3.58758 | -75.72115 | 25504 ft | 455 kts | 218° |
| 2026-04-25 13:43 | 3.56270 | -75.74098 | 25880 ft | 458 kts | 218° |
| 2026-04-25 13:43 | 3.53769 | -75.76090 | 26250 ft | 461 kts | 218° |
| 2026-04-25 13:43 | 3.51255 | -75.78091 | 26599 ft | 464 kts | 217° |
| 2026-04-25 13:43 | 3.48723 | -75.80109 | 26915 ft | 466 kts | 217° |
| 2026-04-25 13:44 | 3.46178 | -75.82136 | 27269 ft | 468 kts | 217° |
| 2026-04-25 13:44 | 3.43622 | -75.84173 | 27613 ft | 470 kts | 217° |
| 2026-04-25 13:44 | 3.41058 | -75.86216 | 27921 ft | 473 kts | 217° |
| 2026-04-25 13:44 | 3.38510 | -75.88245 | 28210 ft | 475 kts | 217° |
| 2026-04-25 13:45 | 3.35918 | -75.90308 | 28516 ft | 477 kts | 217° |
| 2026-04-25 13:45 | 3.33319 | -75.92377 | 28805 ft | 479 kts | 217° |
| 2026-04-25 13:45 | 3.30707 | -75.94457 | 29065 ft | 481 kts | 217° |
| 2026-04-25 13:45 | 3.28074 | -75.96552 | 29313 ft | 484 kts | 217° |
| 2026-04-25 13:46 | 3.25435 | -75.98653 | 29585 ft | 486 kts | 216° |
| 2026-04-25 13:46 | 3.22785 | -76.00761 | 29835 ft | 488 kts | 216° |
| 2026-04-25 13:46 | 3.20126 | -76.02877 | 30103 ft | 489 kts | 216° |
| 2026-04-25 13:46 | 3.17452 | -76.05005 | 30358 ft | 491 kts | 216° |
| 2026-04-25 13:47 | 3.14777 | -76.07134 | 30704 ft | 490 kts | 216° |
| 2026-04-25 13:47 | 3.12114 | -76.09254 | 31152 ft | 488 kts | 216° |
| 2026-04-25 13:47 | 3.09459 | -76.11367 | 31642 ft | 485 kts | 216° |
| 2026-04-25 13:47 | 3.06825 | -76.13464 | 32122 ft | 484 kts | 216° |
| 2026-04-25 13:48 | 3.04195 | -76.15556 | 32519 ft | 483 kts | 216° |
| 2026-04-25 13:48 | 3.01565 | -76.17649 | 32896 ft | 483 kts | 216° |
| 2026-04-25 13:48 | 2.98935 | -76.19740 | 33155 ft | 484 kts | 216° |
| 2026-04-25 13:49 | 2.93647 | -76.23943 | 33147 ft | 484 kts | 216° |
| 2026-04-25 13:49 | 2.88433 | -76.28090 | 33168 ft | 481 kts | 216° |
| 2026-04-25 13:50 | 2.83197 | -76.32256 | 33177 ft | 480 kts | 216° |
| 2026-04-25 13:50 | 2.77958 | -76.36420 | 33191 ft | 481 kts | 216° |
| 2026-04-25 13:51 | 2.72719 | -76.40587 | 33191 ft | 481 kts | 216° |
| 2026-04-25 13:51 | 2.67472 | -76.44757 | 33208 ft | 482 kts | 216° |
| 2026-04-25 13:52 | 2.62221 | -76.48930 | 33222 ft | 482 kts | 216° |
| 2026-04-25 13:52 | 2.56963 | -76.53107 | 33229 ft | 483 kts | 216° |
| 2026-04-25 13:53 | 2.51722 | -76.57272 | 33199 ft | 485 kts | 216° |
| 2026-04-25 13:53 | 2.49074 | -76.59376 | 32928 ft | 486 kts | 216° |
| 2026-04-25 13:53 | 2.46435 | -76.61473 | 32676 ft | 484 kts | 216° |
| 2026-04-25 13:53 | 2.43795 | -76.63569 | 32434 ft | 485 kts | 216° |
| 2026-04-25 13:54 | 2.41152 | -76.65668 | 31737 ft | 485 kts | 216° |
| 2026-04-25 13:54 | 2.38497 | -76.67777 | 30681 ft | 488 kts | 216° |
| 2026-04-25 13:54 | 2.35839 | -76.69887 | 29564 ft | 489 kts | 217° |
| 2026-04-25 13:54 | 2.33166 | -76.72012 | 28336 ft | 491 kts | 217° |
| 2026-04-25 13:55 | 2.30481 | -76.74144 | 27079 ft | 493 kts | 218° |
| 2026-04-25 13:55 | 2.27812 | -76.76264 | 26153 ft | 486 kts | 218° |
| 2026-04-25 13:55 | 2.25170 | -76.78363 | 25193 ft | 481 kts | 218° |
| 2026-04-25 13:55 | 2.22587 | -76.80416 | 24285 ft | 475 kts | 218° |
| 2026-04-25 13:56 | 2.20144 | -76.82356 | 23422 ft | 469 kts | 218° |
| 2026-04-25 13:56 | 2.17590 | -76.84383 | 22514 ft | 463 kts | 218° |
| 2026-04-25 13:56 | 2.15085 | -76.86371 | 21629 ft | 456 kts | 219° |
| 2026-04-25 13:56 | 2.12614 | -76.88333 | 20738 ft | 450 kts | 219° |
| 2026-04-25 13:57 | 2.10184 | -76.90263 | 19870 ft | 444 kts | 219° |
| 2026-04-25 13:57 | 2.08588 | -76.91530 | 19301 ft | 439 kts | 219° |
| 2026-04-25 13:57 | 2.05415 | -76.94049 | 18164 ft | 430 kts | 219° |
| 2026-04-25 13:57 | 2.03093 | -76.95892 | 17333 ft | 424 kts | 219° |
| 2026-04-25 13:58 | 2.00811 | -76.97702 | 16968 ft | 407 kts | 219° |
| 2026-04-25 13:58 | 1.98645 | -76.99421 | 16795 ft | 388 kts | 219° |
| 2026-04-25 13:58 | 1.96577 | -77.01063 | 16628 ft | 372 kts | 219° |
| 2026-04-25 13:58 | 1.94586 | -77.02644 | 16472 ft | 357 kts | 219° |
| 2026-04-25 13:59 | 1.92677 | -77.04159 | 16325 ft | 344 kts | 219° |
| 2026-04-25 13:59 | 1.90836 | -77.05621 | 16175 ft | 331 kts | 219° |
| 2026-04-25 13:59 | 1.89046 | -77.07042 | 15801 ft | 328 kts | 219° |
| 2026-04-25 13:59 | 1.87268 | -77.08454 | 15418 ft | 324 kts | 219° |
| 2026-04-25 14:00 | 1.86102 | -77.09380 | 15157 ft | 323 kts | 219° |
| 2026-04-25 14:00 | 1.83780 | -77.11224 | 14634 ft | 320 kts | 219° |
| 2026-04-25 14:00 | 1.82059 | -77.12591 | 14447 ft | 310 kts | 219° |
| 2026-04-25 14:00 | 1.80394 | -77.13911 | 14299 ft | 300 kts | 219° |
| 2026-04-25 14:01 | 1.78779 | -77.15180 | 14151 ft | 291 kts | 217° |
| 2026-04-25 14:01 | 1.77072 | -77.16234 | 13929 ft | 286 kts | 209° |
| 2026-04-25 14:01 | 1.75310 | -77.17159 | 13657 ft | 287 kts | 208° |
| 2026-04-25 14:01 | 1.73533 | -77.18070 | 13386 ft | 287 kts | 208° |
| 2026-04-25 14:02 | 1.71765 | -77.18983 | 13122 ft | 286 kts | 208° |
| 2026-04-25 14:02 | 1.70005 | -77.19903 | 12863 ft | 284 kts | 208° |
| 2026-04-25 14:02 | 1.68263 | -77.20823 | 12602 ft | 283 kts | 208° |
| 2026-04-25 14:02 | 1.67677 | -77.21134 | 12508 ft | 282 kts | 208° |
| 2026-04-25 14:03 | 1.64808 | -77.22664 | 12087 ft | 280 kts | 208° |
| 2026-04-25 14:03 | 1.63092 | -77.23581 | 11839 ft | 279 kts | 208° |
| 2026-04-25 14:03 | 1.61381 | -77.24499 | 11510 ft | 280 kts | 208° |
| 2026-04-25 14:03 | 1.59650 | -77.25428 | 11130 ft | 282 kts | 208° |
| 2026-04-25 14:04 | 1.57928 | -77.26351 | 10850 ft | 279 kts | 208° |
| 2026-04-25 14:04 | 1.56245 | -77.27254 | 10704 ft | 267 kts | 208° |
| 2026-04-25 14:04 | 1.54663 | -77.28102 | 10598 ft | 248 kts | 208° |
| 2026-04-25 14:04 | 1.53204 | -77.28884 | 10481 ft | 229 kts | 208° |
| 2026-04-25 14:05 | 1.51857 | -77.29578 | 10352 ft | 212 kts | 207° |
| 2026-04-25 14:05 | 1.50592 | -77.30211 | 10216 ft | 194 kts | 206° |
| 2026-04-25 14:05 | 1.49420 | -77.30795 | 9895 ft | 189 kts | 207° |
| 2026-04-25 14:05 | 1.48236 | -77.31388 | 9497 ft | 188 kts | 207° |
| 2026-04-25 14:06 | 1.47090 | -77.31962 | 9243 ft | 179 kts | 207° |
| 2026-04-25 14:06 | 1.46001 | -77.32505 | 9065 ft | 173 kts | 206° |
| 2026-04-25 14:06 | 1.44922 | -77.33045 | 8925 ft | 175 kts | 206° |
| 2026-04-25 14:06 | 1.43828 | -77.33593 | 8835 ft | 176 kts | 207° |
| 2026-04-25 14:07 | 1.42724 | -77.34148 | 8806 ft | 177 kts | 207° |
| 2026-04-25 14:07 | 1.41624 | -77.34700 | 8803 ft | 176 kts | 206° |
| 2026-04-25 14:07 | 1.40530 | -77.35250 | 8812 ft | 175 kts | 207° |
| 2026-04-25 14:07 | 1.39473 | -77.35777 | 8795 ft | 166 kts | 206° |
| 2026-04-25 14:08 | 1.38483 | -77.36264 | 8757 ft | 152 kts | 204° |
| 2026-04-25 14:08 | 1.37500 | -77.36563 | 8503 ft | 145 kts | 186° |
| 2026-04-25 14:08 | 1.36509 | -77.36500 | 8302 ft | 144 kts | 166° |
| 2026-04-25 14:08 | 1.35570 | -77.36128 | 8128 ft | 148 kts | 150° |
| 2026-04-25 14:09 | 1.34757 | -77.35497 | 7917 ft | 148 kts | 133° |
| 2026-04-25 14:09 | 1.34175 | -77.34659 | 7702 ft | 146 kts | 115° |
| 2026-04-25 14:09 | 1.33883 | -77.33710 | 7496 ft | 143 kts | 97° |
| 2026-04-25 14:09 | 1.33850 | -77.33389 | 7437 ft | 144 kts | 92° |
| 2026-04-25 14:10 | 1.34165 | -77.31772 | 7112 ft | 144 kts | 64° |
| 2026-04-25 14:10 | 1.34714 | -77.30946 | 6941 ft | 142 kts | 47° |
| 2026-04-25 14:10 | 1.35470 | -77.30320 | 6733 ft | 141 kts | 30° |
| 2026-04-25 14:10 | 1.36373 | -77.29943 | 6539 ft | 142 kts | 13° |
| 2026-04-25 14:11 | 1.37315 | -77.29710 | 6321 ft | 136 kts | 13° |
| 2026-04-25 14:11 | 1.38237 | -77.29469 | 6108 ft | 140 kts | 14° |
| 2026-04-25 14:11 | 1.39173 | -77.29222 | 5934 ft | 132 kts | 13° |
| 2026-04-25 14:11 | 1.39902 | -77.29030 | 5888 ft | 78 kts | 14° |
| 2026-04-25 14:12 | 1.40227 | -77.28944 | 5868 ft | 32 kts | 14° |
| 2026-04-25 14:12 | 1.40436 | -77.28888 | 5869 ft | 27 kts | 15° |
| 2026-04-25 14:12 | 1.40588 | -77.28856 | 5851 ft | 12 kts | 351° |
| 2026-04-25 14:12 | 1.40624 | -77.28841 | 5850 ft | 5 kts | 95° |
| 2026-04-25 14:13 | 1.40601 | -77.28836 | 5851 ft | 4 kts | 204° |
| 2026-04-25 14:13 | 1.40566 | -77.28852 | 5853 ft | 8 kts | 205° |
| 2026-04-25 14:13 | 1.40490 | -77.28874 | 5866 ft | 18 kts | 195° |
| 2026-04-25 14:13 | 1.40327 | -77.28918 | 5875 ft | 29 kts | 194° |
| 2026-04-25 14:14 | 1.40140 | -77.28971 | 5883 ft | 27 kts | 195° |
| 2026-04-25 14:14 | 1.39963 | -77.29016 | 5885 ft | 25 kts | 194° |
| 2026-04-25 14:14 | 1.39801 | -77.29063 | 5898 ft | 23 kts | 195° |
| 2026-04-25 14:14 | 1.39719 | -77.29082 | 5904 ft | 11 kts | 192° |
| 2026-04-25 14:15 | 1.39621 | -77.29104 | 5906 ft | 9 kts | 181° |
| 2026-04-25 14:15 | 1.39604 | -77.29092 | 5906 ft | 10 kts | 129° |
| 2026-04-25 14:15 | 1.39605 | -77.29024 | 5906 ft | 6 kts | 25° |
| 2026-04-25 14:15 | 1.39616 | -77.28996 | 5906 ft | 4 kts | 108° |
| 2026-04-25 14:16 | 1.39610 | -77.28975 | 5906 ft | 1 kts | 105° |
| 2026-04-25 14:16 | 1.39610 | -77.28974 | 5906 ft | 0 kts | 105° |